Data for 05/23/2016

Time Sea-Level Adjusted Pressure Absolute Pressure Temperature Relative Humidity Dew Point   
(mb) (inHg) (mb) (inHg) (C) (F) (%) (C) (F)
00:05 1012 29.88 841 24.83 7.3 45.2 47 -3.3 26
00:10 1012 29.88 841 24.83 7.4 45.4 47 -3.2 26.3
00:15 1012 29.88 841 24.83 7.4 45.2 47 -3.1 26.4
00:20 1012 29.88 841 24.83 7.2 45 49 -2.8 27
00:25 1012 29.88 841 24.83 7 44.7 50 -2.5 27.4
00:30 1012 29.88 841 24.83 6.9 44.4 51 -2.5 27.5
00:35 1012 29.88 841 24.83 6.8 44.3 51 -2.7 27.1
00:40 1012 29.88 841 24.83 6.9 44.4 50 -2.9 26.8
00:45 1012 29.88 841 24.83 6.9 44.5 49 -2.9 26.8
00:50 1012 29.88 841 24.83 7.1 44.7 49 -2.9 26.8
00:55 1012 29.88 841 24.83 7 44.7 49 -2.8 26.9
01:00 1012 29.88 841 24.83 7 44.5 50 -2.8 26.9
01:05 1012 29.88 841 24.83 6.9 44.5 49 -3.1 26.5
01:10 1012 29.88 841 24.83 7.1 44.8 47 -3.4 25.8
01:15 1012 29.88 841 24.83 7.2 45 47 -3.4 25.8
01:20 1012 29.88 841 24.83 7.2 45 47 -3.5 25.7
01:25 1012 29.88 841 24.83 7.2 45 47 -3.4 25.9
01:30 1012 29.88 841 24.83 7.2 44.9 48 -3.1 26.3
01:35 1012 29.88 841 24.83 7 44.5 48 -3.2 26.2
01:40 1012 29.88 841 24.83 6.8 44.3 48 -3.3 26.1
01:45 1012 29.88 841 24.83 6.8 44.2 48 -3.3 26
01:50 1012 29.88 841 24.83 6.6 44 49 -3.2 26.2
01:55 1012 29.88 841 24.83 6.5 43.7 50 -3.1 26.4
02:00 1012 29.88 841 24.83 6.3 43.4 51 -3.1 26.3
02:05 1012 29.88 841 24.83 6.1 43 52 -3 26.6
02:10 1012 29.88 841 24.83 6 42.8 51 -3.3 26
02:15 1012 29.88 841 24.83 6 42.7 51 -3.4 25.9
02:20 1012 29.88 841 24.83 5.9 42.6 51 -3.4 25.8
02:25 1012 29.88 841 24.83 5.9 42.7 49 -3.9 25
02:30 1012 29.88 841 24.83 6.1 42.9 49 -3.7 25.3
02:35 1012 29.88 841 24.83 6 42.9 50 -3.7 25.4
02:40 1012 29.88 841 24.83 6 42.8 49 -3.8 25.2
02:45 1012 29.88 841 24.83 5.9 42.6 49 -3.9 25
02:50 1011 29.85 841 24.83 5.8 42.4 49 -4 24.7
02:55 1011 29.85 841 24.83 5.6 42.1 49 -4.2 24.5
03:00 1011 29.85 841 24.83 5.5 41.9 49 -4.3 24.3
03:05 1011 29.85 841 24.83 5.5 41.8 50 -4.2 24.5
03:10 1011 29.85 841 24.83 5.4 41.6 50 -4.1 24.6
03:15 1011 29.85 841 24.83 5.3 41.5 51 -4.1 24.5
03:20 1011 29.85 840 24.81 5.3 41.5 51 -4 24.8
03:25 1011 29.85 840 24.81 5.5 41.8 48 -4.7 23.5
03:30 1011 29.85 840 24.81 5.9 42.7 46 -4.7 23.5
03:35 1011 29.85 840 24.81 6.3 43.3 45 -4.7 23.6
03:40 1011 29.85 840 24.81 6.3 43.3 47 -4.1 24.6
03:45 1011 29.85 840 24.81 6.2 43.2 46 -4.6 23.7
03:50 1011 29.85 840 24.81 6.5 43.6 45 -4.5 24
03:55 1011 29.85 840 24.81 6.5 43.7 46 -4.3 24.3
04:00 1011 29.85 840 24.81 6.5 43.8 46 -4.3 24.3
04:05 1011 29.85 840 24.81 6.5 43.8 46 -4.2 24.5
04:10 1011 29.85 840 24.81 6.5 43.6 47 -4 24.7
04:15 1011 29.85 840 24.81 6.5 43.7 46 -4.3 24.2
04:20 1011 29.85 840 24.81 6.7 44 45 -4.4 24.1
04:25 1011 29.85 840 24.81 6.7 44.1 45 -4.3 24.2
04:30 1011 29.85 841 24.83 6.8 44.2 45 -4.3 24.3
04:35 1011 29.85 841 24.83 6.8 44.2 46 -4.1 24.6
04:40 1011 29.85 841 24.83 6.7 44 46 -4.1 24.7
04:45 1011 29.85 841 24.83 6.7 44 46 -4 24.8
04:50 1011 29.85 841 24.83 6.6 43.9 46 -4.3 24.3
04:55 1012 29.88 841 24.83 6.7 44.1 46 -4 24.9
05:00 1012 29.88 841 24.83 6.7 44 47 -3.9 25
05:05 1012 29.88 841 24.83 6.7 44 46 -4.1 24.6
05:10 1012 29.88 841 24.83 6.8 44.2 46 -4.2 24.5
05:15 1012 29.88 841 24.83 7 44.6 44 -4.5 24
05:20 1012 29.88 841 24.83 7.1 44.8 45 -4.1 24.6
05:25 1012 29.88 841 24.83 7.1 44.8 44 -4.2 24.5
05:30 1012 29.88 841 24.83 7.2 45 43 -4.4 24.1
05:35 1012 29.88 841 24.83 7.4 45.3 43 -4.4 24.1
05:40 1012 29.88 841 24.83 7.5 45.5 42 -4.4 24.1
05:45 1012 29.88 841 24.83 7.6 45.6 42 -4.5 23.9
05:50 1012 29.88 841 24.83 7.7 45.8 42 -4.3 24.2
05:55 1012 29.88 841 24.83 7.7 45.9 40 -5 23
06:00 1012 29.88 841 24.83 7.9 46.2 41 -4.4 24.1
06:05 1012 29.88 841 24.83 7.9 46.2 41 -4.7 23.6
06:10 1012 29.88 841 24.83 8 46.4 41 -4.5 24
06:15 1012 29.88 841 24.83 8 46.3 42 -4.1 24.7
06:20 1012 29.88 841 24.83 7.9 46.3 42 -4.2 24.5
06:25 1012 29.88 841 24.83 8 46.4 42 -4.2 24.4
06:30 1012 29.88 841 24.83 8 46.5 43 -3.7 25.3
06:35 1012 29.88 841 24.83 8 46.3 43 -3.9 25
06:40 1012 29.88 841 24.83 8 46.4 44 -3.6 25.5
06:45 1012 29.88 841 24.83 8 46.4 44 -3.4 25.9
06:50 1012 29.88 841 24.83 8 46.5 45 -3.2 26.2
06:55 1012 29.88 841 24.83 8.1 46.5 45 -3.1 26.4
07:00 1012 29.88 841 24.83 8.1 46.6 45 -3.1 26.3
07:05 1012 29.88 841 24.83 8.3 46.9 43 -3.6 25.6
07:10 1012 29.88 841 24.83 8.5 47.2 42 -3.6 25.4
07:15 1012 29.88 841 24.83 8.7 47.6 41 -3.7 25.3
07:20 1012 29.88 841 24.83 8.8 47.9 40 -3.9 24.9
07:25 1012 29.88 841 24.83 8.9 48.1 40 -3.9 25
07:30 1012 29.88 841 24.83 9 48.3 42 -3.2 26.2
07:35 1012 29.88 841 24.83 9 48.3 41 -3.3 26
07:40 1012 29.88 841 24.83 9.2 48.6 40 -3.5 25.6
07:45 1012 29.88 841 24.83 9.4 48.9 38 -4.3 24.2
07:50 1012 29.88 841 24.83 9.6 49.3 38 -4 24.8
07:55 1012 29.88 841 24.83 9.7 49.5 37 -4.3 24.2
08:00 1012 29.88 841 24.83 9.9 49.7 36 -4.3 24.2
08:05 1012 29.88 841 24.83 9.9 49.7 36 -4.3 24.2
08:10 1012 29.88 841 24.83 9.9 49.8 36 -4.3 24.3
08:15 1012 29.88 841 24.83 10 50.1 37 -3.9 25
08:20 1012 29.88 841 24.83 10.3 50.6 35 -4.5 23.9
08:25 1012 29.88 841 24.83 10.3 50.5 35 -4.6 23.7
08:30 1012 29.88 841 24.83 10.3 50.6 35 -4.3 24.3
08:35 1012 29.88 841 24.83 10.4 50.6 34 -4.8 23.3
08:40 1012 29.88 841 24.83 10.1 50.2 33 -5.5 22
08:45 1012 29.88 841 24.83 10.1 50.2 34 -5.1 22.8
08:50 1012 29.88 841 24.83 10 50.1 35 -4.6 23.8
08:55 1012 29.88 841 24.83 10.2 50.3 34 -5 23.1
09:00 1012 29.88 841 24.83 10.1 50.2 34 -4.8 23.3
09:05 1012 29.88 841 24.83 10.1 50.1 34 -4.9 23.3
09:10 1012 29.88 841 24.83 10 49.9 34 -5.3 22.5
09:15 1012 29.88 841 24.83 9.9 49.8 35 -4.8 23.4
09:20 1012 29.88 841 24.83 10 50 36 -4.4 24.1
09:25 1012 29.88 841 24.83 10.1 50.1 35 -4.7 23.5
09:30 1012 29.88 841 24.83 10.3 50.5 36 -4.1 24.6
09:35 1012 29.88 841 24.83 10.4 50.7 34 -4.6 23.7
09:40 1012 29.88 841 24.83 10.3 50.6 34 -4.8 23.4
09:45 1012 29.88 841 24.83 10.3 50.5 35 -4.6 23.8
09:50 1012 29.88 841 24.83 10.3 50.6 34 -4.8 23.4
09:55 1012 29.88 841 24.83 10.5 50.8 34 -4.8 23.4
10:00 1012 29.88 841 24.83 10.6 51.1 35 -4.1 24.6
10:05 1012 29.88 841 24.83 10.8 51.4 35 -4.1 24.6
10:10 1012 29.88 841 24.83 11.1 51.9 33 -4.5 23.8
10:15 1012 29.88 841 24.83 11.1 51.9 32 -4.9 23.1
10:20 1012 29.88 841 24.83 10.9 51.7 33 -4.7 23.5
10:25 1012 29.88 841 24.83 11.1 51.9 33 -4.4 24.1
10:30 1012 29.88 841 24.83 11 51.9 34 -4 24.7
10:35 1012 29.88 841 24.83 11.2 52.2 34 -4.1 24.7
10:40 1012 29.88 841 24.83 11.4 52.5 33 -4.1 24.6
10:45 1012 29.88 841 24.83 11.3 52.3 32 -4.7 23.6
10:50 1012 29.88 841 24.83 11.1 52.1 33 -4.4 24.2
10:55 1012 29.88 841 24.83 11.2 52.2 35 -3.6 25.4
11:00 1012 29.88 841 24.83 11.5 52.8 35 -3.3 26
11:05 1012 29.88 841 24.83 11.6 52.9 33 -3.9 24.9
11:10 1012 29.88 841 24.83 11.4 52.6 35 -3.5 25.7
11:15 1012 29.88 841 24.83 11.1 52 35 -3.6 25.4
11:20 1012 29.88 841 24.83 11.1 51.9 37 -3.1 26.4
11:25 1012 29.88 841 24.83 11.2 52.1 37 -2.9 26.8
11:30 1012 29.88 841 24.83 11.4 52.6 36 -2.9 26.7
11:35 1012 29.88 841 24.83 11 51.7 38 -2.7 27.1
11:40 1012 29.88 841 24.83 11.3 52.3 36 -3.2 26.2
11:45 1012 29.88 842 24.86 11.4 52.5 36 -3.2 26.3
11:50 1012 29.88 842 24.86 11.4 52.4 36 -3.3 26.1
11:55 1012 29.88 841 24.83 11 51.8 34 -4.1 24.6
12:00 1012 29.88 841 24.83 11.4 52.6 34 -3.7 25.3
12:05 1012 29.88 841 24.83 11.5 52.7 33 -4.3 24.2
12:10 1012 29.88 841 24.83 12.2 53.9 31 -4.3 24.3
12:15 1012 29.88 841 24.83 11.9 53.3 31 -4.6 23.7
12:20 1012 29.88 841 24.83 11.7 53 34 -3.5 25.7
12:25 1012 29.88 841 24.83 11 51.8 35 -4 24.9
12:30 1012 29.88 841 24.83 10.7 51.3 33 -4.9 23.2
12:35 1012 29.88 841 24.83 11.2 52.1 32 -4.9 23.2
12:40 1012 29.88 841 24.83 11.9 53.4 31 -4.5 23.9
12:45 1012 29.88 841 24.83 11.8 53.2 33 -3.9 25
12:50 1012 29.88 841 24.83 12.2 53.9 30 -5 23
12:55 1012 29.88 841 24.83 12.4 54.4 32 -3.9 24.9
13:00 1012 29.88 841 24.83 12.6 54.7 29 -5.1 22.8
13:05 1012 29.88 841 24.83 13.1 55.5 28 -5.2 22.7
13:10 1012 29.88 841 24.83 13.1 55.5 30 -4.2 24.5
13:15 1012 29.88 841 24.83 13.1 55.6 29 -4.3 24.3
13:20 1012 29.88 841 24.83 12.3 54.1 31 -4.1 24.6
13:25 1012 29.88 841 24.83 12.7 54.8 30 -4.6 23.8
13:30 1012 29.88 841 24.83 12.8 55 31 -3.8 25.1
13:35 1012 29.88 841 24.83 13.1 55.5 31 -3.8 25.1
13:40 1012 29.88 841 24.83 12.8 55 31 -4 24.8
13:45 1012 29.88 841 24.83 12.7 54.8 30 -4.4 24.1
13:50 1012 29.88 842 24.86 12.9 55.2 29 -4.6 23.8
13:55 1012 29.88 841 24.83 13.2 55.8 28 -4.6 23.7
14:00 1012 29.88 841 24.83 13.4 56.2 28 -4.8 23.4
14:05 1012 29.88 841 24.83 13.6 56.4 34 -2 28.5
14:10 1012 29.88 841 24.83 14 57.3 29 -3.5 25.8
14:15 1012 29.88 841 24.83 13.4 56.1 34 -2.1 28.3
14:20 1012 29.88 842 24.86 12.2 54 39 -1.2 29.8
14:25 1013 29.91 842 24.86 11.7 53.1 42 -0.8 30.5
14:30 1013 29.91 842 24.86 10.9 51.6 47 -0 31.9
14:35 1013 29.91 842 24.86 10.3 50.5 48 -0.1 31.7
14:40 1013 29.91 842 24.86 10.1 50.2 47 -0.5 31
14:45 1013 29.91 842 24.86 10.2 50.4 47 -0.6 30.8
14:50 1013 29.91 842 24.86 10.5 50.9 44 -1.2 29.9
14:55 1013 29.91 842 24.86 11 51.9 42 -1.2 29.9
15:00 1013 29.91 842 24.86 11.3 52.3 40 -1.6 29.1
15:05 1013 29.91 842 24.86 10.9 51.6 44 -0.9 30.3
15:10 1013 29.91 842 24.86 11.9 53.5 38 -2 28.4
15:15 1013 29.91 842 24.86 12.2 53.9 42 -0.4 31.3
15:20 1013 29.91 842 24.86 11.4 52.5 40 -1.6 29.2
15:25 1013 29.91 842 24.86 11.6 52.8 39 -1.8 28.7
15:30 1013 29.91 842 24.86 11.4 52.5 44 -0.5 31.1
15:35 1013 29.91 842 24.86 10.8 51.4 45 -0.5 31
15:40 1013 29.91 842 24.86 10.5 50.9 55 1.8 35.2
15:45 1013 29.91 842 24.86 9 48.2 64 2.7 36.8
15:50 1013 29.91 842 24.86 8.8 47.9 66 2.8 37
15:55 1013 29.91 842 24.86 9.5 49.1 61 2.4 36.4
16:00 1013 29.91 842 24.86 9.8 49.6 55 1.2 34.1
16:05 1013 29.91 842 24.86 10.1 50.2 55 1.6 34.9
16:10 1013 29.91 842 24.86 10.3 50.5 54 1.5 34.8
16:15 1013 29.91 842 24.86 9.9 49.9 53 0.7 33.3
16:20 1013 29.91 842 24.86 10.3 50.5 48 -0.1 31.8
16:25 1013 29.91 842 24.86 10.4 50.8 51 0.7 33.2
16:30 1013 29.91 842 24.86 10.4 50.7 47 -0.5 31
16:35 1013 29.91 842 24.86 10.2 50.4 44 -1.3 29.6
16:40 1013 29.91 842 24.86 10.1 50.2 46 -1 30.2
16:45 1013 29.91 843 24.89 9.8 49.6 48 -0.5 31
16:50 1013 29.91 843 24.89 9.4 48.9 51 -0.2 31.6
16:55 1014 29.94 843 24.89 9.3 48.7 51 -0.2 31.6
17:00 1014 29.94 843 24.89 9.2 48.6 53 0.2 32.4
17:05 1014 29.94 843 24.89 9 48.2 55 0.5 32.8
17:10 1014 29.94 843 24.89 8.8 47.8 57 0.7 33.3
17:15 1014 29.94 843 24.89 8.8 47.8 57 0.7 33.2
17:20 1014 29.94 843 24.89 8.9 48 57 0.8 33.4
17:25 1014 29.94 843 24.89 9.2 48.5 55 0.6 33.2
17:30 1014 29.94 843 24.89 9.3 48.7 53 0.3 32.5
17:35 1014 29.94 843 24.89 9.4 48.8 54 0.7 33.2
17:40 1014 29.94 843 24.89 9.3 48.7 56 0.9 33.6
17:45 1014 29.94 843 24.89 9 48.2 56 0.8 33.5
17:50 1014 29.94 843 24.89 8.8 47.8 59 1.2 34.2
17:55 1014 29.94 843 24.89 8.6 47.5 58 0.9 33.6
18:00 1014 29.94 843 24.89 8.4 47.2 61 1.3 34.4
18:05 1014 29.94 843 24.89 8.2 46.7 64 1.7 35.1
18:10 1014 29.94 843 24.89 8.1 46.5 64 1.7 35.1
18:15 1014 29.94 843 24.89 8 46.5 64 1.7 35
18:20 1014 29.94 843 24.89 8 46.4 64 1.6 34.9
18:25 1014 29.94 843 24.89 7.9 46.3 64 1.6 34.8
18:30 1014 29.94 843 24.89 7.8 46.1 64 1.5 34.7
18:35 1014 29.94 843 24.89 7.8 46 64 1.5 34.7
18:40 1014 29.94 843 24.89 7.6 45.7 65 1.4 34.6
18:45 1014 29.94 843 24.89 7.5 45.5 65 1.5 34.6
18:50 1014 29.94 843 24.89 7.5 45.6 64 1.3 34.3
18:55 1014 29.94 843 24.89 7.5 45.5 63 1 33.7
19:00 1014 29.94 843 24.89 7.1 44.8 66 1.3 34.3
19:05 1014 29.94 843 24.89 7 44.7 68 1.6 34.9
19:10 1014 29.94 843 24.89 7 44.6 69 1.7 35.1
19:15 1014 29.94 843 24.89 6.9 44.4 72 2.1 35.9
19:20 1014 29.94 844 24.92 6.5 43.6 76 2.6 36.7
19:25 1014 29.94 844 24.92 6 42.8 79 2.7 36.9
19:30 1014 29.94 844 24.92 5.9 42.6 81 2.9 37.3
19:35 1015 29.97 844 24.92 5.9 42.6 81 2.8 37.1
19:40 1015 29.97 844 24.92 5.7 42.3 83 3 37.4
19:45 1015 29.97 844 24.92 5.6 42.1 85 3.2 37.8
19:50 1014 29.94 844 24.92 5.6 42.1 83 2.9 37.2
19:55 1014 29.94 844 24.92 5.4 41.7 85 3 37.4
20:00 1015 29.97 844 24.92 5.2 41.3 85 2.8 37
20:05 1015 29.97 844 24.92 5.1 41.2 85 2.8 37.1
20:10 1015 29.97 844 24.92 5.2 41.3 86 3 37.3
20:15 1015 29.97 844 24.92 5.2 41.3 85 2.9 37.2
20:20 1015 29.97 844 24.92 5.1 41.2 86 2.9 37.3
20:25 1015 29.97 844 24.92 5.1 41.2 87 3.1 37.5
20:30 1015 29.97 844 24.92 5.2 41.4 87 3.2 37.8
20:35 1015 29.97 844 24.92 5.3 41.5 87 3.3 37.9
20:40 1015 29.97 844 24.92 5.3 41.5 85 2.9 37.1
20:45 1015 29.97 844 24.92 5 41.1 86 3 37.3
20:50 1015 29.97 844 24.92 4.9 40.8 88 3 37.5
20:55 1015 29.97 844 24.92 4.8 40.6 89 3.1 37.5
21:00 1015 29.97 844 24.92 4.8 40.6 89 3.1 37.5
21:05 1015 29.97 844 24.92 4.9 40.8 89 3.2 37.7
21:10 1015 29.97 845 24.95 4.9 40.8 88 3 37.5
21:15 1015 29.97 845 24.95 5 40.9 88 3.1 37.6
21:20 1015 29.97 845 24.95 5 41.1 88 3.2 37.7
21:25 1015 29.97 844 24.92 4.9 40.9 88 3.1 37.5
21:30 1015 29.97 844 24.92 4.8 40.7 89 3.1 37.6
21:35 1015 29.97 845 24.95 4.9 40.8 89 3.2 37.8
21:40 1015 29.97 845 24.95 4.9 40.8 90 3.4 38
21:45 1015 29.97 845 24.95 4.8 40.7 90 3.3 38
21:50 1015 29.97 845 24.95 4.8 40.6 90 3.3 37.9
21:55 1015 29.97 845 24.95 4.8 40.6 89 3.2 37.8
22:00 1015 29.97 845 24.95 4.9 40.7 90 3.3 37.9
22:05 1015 29.97 845 24.95 4.9 40.8 89 3.2 37.8
22:10 1015 29.97 845 24.95 4.8 40.6 90 3.2 37.8
22:15 1015 29.97 845 24.95 4.7 40.5 90 3.2 37.8
22:20 1015 29.97 845 24.95 4.7 40.5 90 3.2 37.8
22:25 1015 29.97 845 24.95 4.7 40.5 90 3.3 37.9
22:30 1015 29.97 845 24.95 4.7 40.5 90 3.2 37.8
22:35 1015 29.97 845 24.95 4.6 40.4 90 3.2 37.7
22:40 1015 29.97 845 24.95 4.5 40.1 90 3 37.3
22:45 1015 29.97 845 24.95 4.5 40 88 2.7 36.9
22:50 1015 29.97 845 24.95 4.4 39.8 88 2.5 36.5
22:55 1015 29.97 845 24.95 4.4 39.9 89 2.7 36.9
23:00 1015 29.97 845 24.95 4.4 39.8 88 2.6 36.6
23:05 1015 29.97 845 24.95 4.3 39.8 89 2.6 36.7
23:10 1015 29.97 845 24.95 4.3 39.7 89 2.7 36.8
23:15 1015 29.97 845 24.95 4.3 39.8 89 2.7 36.9
23:20 1015 29.97 845 24.95 4.4 39.9 89 2.7 36.8
23:25 1015 29.97 845 24.95 4.4 39.8 89 2.7 36.8
23:30 1015 29.97 845 24.95 4.5 40.1 89 2.8 37
23:35 1015 29.97 845 24.95 4.6 40.2 88 2.8 37
23:40 1015 29.97 845 24.95 4.5 40 87 2.4 36.4
23:45 1015 29.97 845 24.95 4.4 39.8 89 2.6 36.8
23:50 1015 29.97 845 24.95 4.4 39.8 87 2.3 36.2
23:55 1016 30 845 24.95 4.4 40 87 2.5 36.5
24:00 1015 29.97 845 24.95 4.5 40.1 87 2.4 36.4